createdAt,value
2019-05-10T00:00:51.373Z,10.78
2019-05-10T00:01:44.624Z,10.76
2019-05-10T00:02:37.993Z,10.77
2019-05-10T00:03:31.661Z,10.77
2019-05-10T00:04:24.749Z,10.77
2019-05-10T00:05:18.294Z,10.82
2019-05-10T00:06:11.761Z,10.78
2019-05-10T00:07:05.088Z,10.75
2019-05-10T00:07:58.419Z,10.75
2019-05-10T00:08:45.185Z,10.72
2019-05-10T00:09:20.078Z,10.72
2019-05-10T00:09:54.984Z,10.70
2019-05-10T00:10:29.501Z,10.67
2019-05-10T00:11:31.223Z,10.80
2019-05-10T00:12:24.304Z,10.80
2019-05-10T00:13:17.536Z,10.75
2019-05-10T00:13:59.276Z,10.75
2019-05-10T00:14:59.529Z,10.83
2019-05-10T00:15:36.353Z,10.85
2019-05-10T00:16:12.603Z,10.88
2019-05-10T00:16:49.256Z,10.88
2019-05-10T00:17:25.081Z,10.83
2019-05-10T00:18:00.523Z,10.79
2019-05-10T00:18:37.123Z,10.77
2019-05-10T00:19:13.119Z,10.77
2019-05-10T00:19:49.058Z,10.79
2019-05-10T00:20:24.827Z,10.79
2019-05-10T00:21:00.765Z,10.83
2019-05-10T00:21:36.578Z,10.82
2019-05-10T00:22:12.674Z,10.88
2019-05-10T00:22:48.209Z,10.91
2019-05-10T00:23:24.109Z,10.98
2019-05-10T00:24:00.048Z,10.86
2019-05-10T00:24:35.800Z,10.75
2019-05-10T00:25:11.410Z,10.92
2019-05-10T00:25:47.123Z,10.90
2019-05-10T00:26:23.171Z,10.95
2019-05-10T00:26:58.762Z,10.93
2019-05-10T00:27:34.217Z,10.89
2019-05-10T00:28:09.881Z,10.78
2019-05-10T00:28:45.643Z,10.74
2019-05-10T00:29:21.803Z,10.78
2019-05-10T00:29:57.212Z,10.73
2019-05-10T00:30:32.827Z,10.73
2019-05-10T00:31:08.594Z,10.76
2019-05-10T00:31:44.255Z,10.76
2019-05-10T00:32:19.705Z,10.84
2019-05-10T00:32:55.767Z,10.73
2019-05-10T00:33:31.817Z,10.73
2019-05-10T00:34:07.847Z,10.76
2019-05-10T00:34:43.786Z,10.74
2019-05-10T00:35:19.439Z,10.72
2019-05-10T00:35:55.060Z,10.72
2019-05-10T00:36:30.706Z,10.62
2019-05-10T00:37:06.692Z,10.72
2019-05-10T00:37:42.411Z,10.71
2019-05-10T00:38:18.556Z,10.60
2019-05-10T00:38:54.206Z,10.68
2019-05-10T00:39:29.642Z,10.68
2019-05-10T00:40:06.772Z,10.64
2019-05-10T00:40:42.557Z,10.66
2019-05-10T00:41:18.181Z,10.66
2019-05-10T00:41:53.760Z,10.74
2019-05-10T00:42:30.758Z,10.78
2019-05-10T00:43:06.436Z,10.82
2019-05-10T00:43:42.493Z,10.82
2019-05-10T00:44:18.104Z,10.72
2019-05-10T00:44:53.849Z,10.72
2019-05-10T00:45:29.569Z,10.73
2019-05-10T00:46:06.598Z,10.78
2019-05-10T00:46:42.568Z,10.73
2019-05-10T00:47:18.576Z,10.73
2019-05-10T00:47:54.322Z,10.72
2019-05-10T00:48:29.988Z,10.69
2019-05-10T00:49:05.448Z,10.78
2019-05-10T00:49:41.429Z,10.78
2019-05-10T00:50:17.122Z,10.65
2019-05-10T00:50:52.752Z,10.65
2019-05-10T00:51:28.574Z,10.71
2019-05-10T00:52:04.279Z,10.68
2019-05-10T00:52:39.988Z,10.70
2019-05-10T00:53:16.088Z,10.66
2019-05-10T00:53:51.901Z,10.66
2019-05-10T00:54:27.905Z,10.61
2019-05-10T00:55:17.866Z,10.55
2019-05-10T00:55:40.924Z,10.63
2019-05-10T00:56:16.371Z,10.63
2019-05-10T00:56:52.027Z,10.58
2019-05-10T00:57:28.096Z,10.58
2019-05-10T00:58:03.716Z,10.57
2019-05-10T00:58:39.217Z,10.50
2019-05-10T00:59:15.398Z,10.54
2019-05-10T00:59:51.692Z,10.54
2019-05-10T01:00:27.312Z,10.63
2019-05-10T01:01:02.768Z,10.55
2019-05-10T01:01:38.733Z,10.62
2019-05-10T01:02:14.390Z,10.46
2019-05-10T01:02:49.985Z,10.46
2019-05-10T01:03:25.448Z,10.46
2019-05-10T01:04:01.350Z,10.55
2019-05-10T01:04:37.034Z,10.55
2019-05-10T01:05:12.737Z,10.63
2019-05-10T01:05:48.590Z,10.70
2019-05-10T01:06:24.209Z,10.67
2019-05-10T01:06:59.851Z,10.70
2019-05-10T01:07:35.870Z,10.64
2019-05-10T01:08:12.077Z,10.51
2019-05-10T01:08:47.740Z,10.54
2019-05-10T01:09:23.633Z,10.44
2019-05-10T01:09:59.626Z,10.46
2019-05-10T01:10:35.084Z,10.37
2019-05-10T01:11:10.738Z,10.37
2019-05-10T01:11:46.405Z,10.40
2019-05-10T01:12:22.486Z,10.40
2019-05-10T01:12:58.194Z,10.39
2019-05-10T01:13:34.744Z,10.39
2019-05-10T01:14:10.480Z,10.38
2019-05-10T01:14:46.433Z,10.31
2019-05-10T01:15:22.200Z,10.31
2019-05-10T01:15:58.121Z,10.35
2019-05-10T01:16:34.101Z,10.31
2019-05-10T01:17:09.735Z,10.40
2019-05-10T01:17:45.442Z,10.40
2019-05-10T01:18:21.497Z,10.34
2019-05-10T01:18:57.104Z,10.34
2019-05-10T01:19:32.779Z,10.36
2019-05-10T01:20:08.448Z,10.26
2019-05-10T01:20:44.461Z,10.26
2019-05-10T01:21:20.504Z,10.23
2019-05-10T01:21:56.556Z,10.23
2019-05-10T01:22:35.034Z,10.22
2019-05-10T01:23:11.015Z,10.28
2019-05-10T01:23:47.183Z,10.22
2019-05-10T01:24:22.808Z,10.28
2019-05-10T01:24:58.268Z,10.28
2019-05-10T01:25:35.832Z,10.43
2019-05-10T01:26:11.332Z,10.35
2019-05-10T01:26:47.299Z,10.24
2019-05-10T01:27:22.773Z,10.29
2019-05-10T01:27:58.390Z,10.28
2019-05-10T01:28:34.127Z,10.28
2019-05-10T01:29:09.816Z,10.29
2019-05-10T01:29:45.657Z,10.33
2019-05-10T01:30:21.390Z,10.30
2019-05-10T01:30:57.398Z,10.21
2019-05-10T01:31:34.180Z,10.39
2019-05-10T01:32:09.978Z,10.49
2019-05-10T01:32:45.730Z,10.49
2019-05-10T01:33:21.438Z,10.34
2019-05-10T01:33:57.439Z,10.39
2019-05-10T01:34:32.871Z,10.32
2019-05-10T01:35:08.560Z,10.32
2019-05-10T01:35:44.196Z,10.26
2019-05-10T01:36:23.047Z,10.25
2019-05-10T01:36:58.504Z,10.26
2019-05-10T01:37:34.448Z,10.23
2019-05-10T01:38:10.140Z,10.25
2019-05-10T01:38:45.823Z,10.20
2019-05-10T01:39:21.413Z,10.20
2019-05-10T01:39:57.430Z,10.22
2019-05-10T01:40:33.389Z,10.17
2019-05-10T01:41:09.183Z,10.25
2019-05-10T01:41:44.762Z,10.22
2019-05-10T01:42:20.675Z,10.20
2019-05-10T01:42:57.110Z,10.20
2019-05-10T01:43:33.057Z,10.26
2019-05-10T01:44:08.642Z,10.34
2019-05-10T01:44:44.356Z,10.28
2019-05-10T01:45:20.094Z,10.22
2019-05-10T01:45:55.721Z,10.22
2019-05-10T01:46:31.179Z,10.24
2019-05-10T01:47:08.936Z,10.21
2019-05-10T01:47:44.896Z,10.19
2019-05-10T01:48:20.629Z,10.19
2019-05-10T01:48:56.143Z,10.17
2019-05-10T01:49:31.755Z,10.17
2019-05-10T01:50:07.562Z,10.12
2019-05-10T01:50:44.206Z,10.23
2019-05-10T01:51:19.651Z,10.17
2019-05-10T01:51:55.266Z,10.17
2019-05-10T01:52:31.226Z,10.10
2019-05-10T01:53:06.993Z,10.10
2019-05-10T01:53:42.527Z,10.07
2019-05-10T01:54:18.121Z,10.09
2019-05-10T01:54:53.789Z,10.11
2019-05-10T01:55:29.723Z,10.11
2019-05-10T01:56:05.345Z,10.09
2019-05-10T01:56:41.217Z,10.04
2019-05-10T01:57:16.995Z,10.15
2019-05-10T01:57:52.998Z,10.15
2019-05-10T01:58:28.428Z,10.17
2019-05-10T01:59:04.071Z,10.17
2019-05-10T01:59:40.286Z,10.21
2019-05-10T02:00:16.883Z,10.12
2019-05-10T02:00:52.797Z,10.11
2019-05-10T02:01:28.715Z,10.10
2019-05-10T02:02:04.856Z,10.07
2019-05-10T02:02:40.932Z,10.19
2019-05-10T02:03:16.403Z,10.06
2019-05-10T02:03:52.387Z,10.04
2019-05-10T02:04:28.110Z,10.02
2019-05-10T02:05:04.461Z,10.04
2019-05-10T02:05:40.088Z,10.10
2019-05-10T02:06:15.729Z,10.01
2019-05-10T02:06:51.347Z,10.02
2019-05-10T02:07:27.069Z,9.97
2019-05-10T02:08:02.780Z,10.00
2019-05-10T02:08:38.502Z,9.94
2019-05-10T02:09:14.650Z,9.94
2019-05-10T02:09:50.730Z,9.97
2019-05-10T02:10:26.674Z,10.05
2019-05-10T02:11:03.179Z,10.05
2019-05-10T02:11:39.002Z,9.97
2019-05-10T02:12:14.637Z,9.98
2019-05-10T02:12:50.087Z,9.96
2019-05-10T02:13:26.172Z,9.98
2019-05-10T02:14:01.854Z,9.96
2019-05-10T02:14:37.682Z,9.99
2019-05-10T02:15:13.634Z,10.04
2019-05-10T02:15:49.638Z,10.02
2019-05-10T02:16:25.264Z,10.09
2019-05-10T02:17:00.914Z,10.03
2019-05-10T02:17:36.400Z,9.97
2019-05-10T02:18:12.063Z,9.97
2019-05-10T02:18:48.055Z,10.06
2019-05-10T02:19:24.063Z,9.99
2019-05-10T02:19:59.533Z,9.99
2019-05-10T02:20:35.185Z,9.99
2019-05-10T02:21:11.207Z,9.94
2019-05-10T02:21:46.857Z,10.02
2019-05-10T02:22:22.409Z,10.03
2019-05-10T02:22:58.319Z,9.87
2019-05-10T02:23:33.952Z,9.87
2019-05-10T02:24:10.065Z,9.78
2019-05-10T02:24:45.568Z,9.83
2019-05-10T02:25:21.194Z,9.84
2019-05-10T02:26:09.113Z,9.88
2019-05-10T02:26:34.191Z,9.91
2019-05-10T02:27:09.797Z,9.86
2019-05-10T02:27:45.495Z,9.72
2019-05-10T02:28:21.486Z,9.72
2019-05-10T02:28:57.139Z,9.68
2019-05-10T02:29:32.572Z,9.63
2019-05-10T02:30:09.134Z,9.63
2019-05-10T02:30:44.970Z,9.63
2019-05-10T02:31:21.609Z,9.61
2019-05-10T02:31:57.606Z,9.61
2019-05-10T02:32:33.664Z,9.63
2019-05-10T02:33:10.345Z,9.69
2019-05-10T02:33:45.996Z,9.69
2019-05-10T02:34:22.173Z,9.63
2019-05-10T02:34:58.178Z,9.63
2019-05-10T02:35:33.815Z,9.69
2019-05-10T02:36:09.575Z,9.69
2019-05-10T02:36:45.011Z,9.56
2019-05-10T02:37:21.085Z,9.64
2019-05-10T02:37:57.063Z,9.69
2019-05-10T02:38:32.693Z,9.62
2019-05-10T02:39:08.974Z,9.72
2019-05-10T02:39:45.067Z,9.72
2019-05-10T02:40:20.715Z,9.76
2019-05-10T02:40:56.784Z,9.76
2019-05-10T02:41:32.221Z,9.85
2019-05-10T02:42:07.981Z,9.75
2019-05-10T02:42:43.959Z,9.65
2019-05-10T02:43:19.573Z,9.74
2019-05-10T02:43:55.026Z,9.74
2019-05-10T02:44:30.660Z,9.81
2019-05-10T02:45:06.952Z,9.79
2019-05-10T02:45:42.674Z,9.77
2019-05-10T02:46:18.200Z,9.85
2019-05-10T02:46:54.221Z,9.79
2019-05-10T02:47:30.301Z,9.76
2019-05-10T02:48:06.482Z,9.87
2019-05-10T02:48:42.287Z,9.87
2019-05-10T02:49:18.334Z,9.81
2019-05-10T02:49:53.972Z,9.93
2019-05-10T02:50:30.021Z,9.93
2019-05-10T02:51:05.531Z,9.91
2019-05-10T02:51:41.236Z,9.79
2019-05-10T02:52:17.213Z,9.79
2019-05-10T02:52:52.825Z,9.77
2019-05-10T02:53:28.461Z,9.72
2019-05-10T02:54:04.183Z,9.72
2019-05-10T02:54:40.204Z,9.76
2019-05-10T02:55:15.859Z,9.73
2019-05-10T02:55:52.075Z,9.73
2019-05-10T02:56:31.460Z,9.74
2019-05-10T02:57:08.967Z,9.72
2019-05-10T02:57:45.474Z,9.72
2019-05-10T02:58:20.938Z,9.76
2019-05-10T02:58:57.622Z,9.69
2019-05-10T02:59:35.234Z,9.69
2019-05-10T03:00:12.933Z,9.66
2019-05-10T03:00:50.265Z,9.73
2019-05-10T03:01:29.925Z,9.64
2019-05-10T03:02:07.155Z,9.64
2019-05-10T03:02:44.703Z,9.71
2019-05-10T03:03:23.976Z,9.70
2019-05-10T03:04:02.957Z,9.71
2019-05-10T03:04:39.015Z,9.60
2019-05-10T03:05:15.220Z,9.60
2019-05-10T03:05:52.299Z,9.65
2019-05-10T03:06:28.702Z,9.65
2019-05-10T03:07:06.748Z,9.64
2019-05-10T03:07:43.565Z,9.63
2019-05-10T03:08:19.008Z,9.63
2019-05-10T03:08:54.622Z,9.61
2019-05-10T03:09:32.401Z,9.61
2019-05-10T03:10:10.887Z,9.61
2019-05-10T03:10:58.226Z,9.63
2019-05-10T03:11:38.621Z,9.59
2019-05-10T03:12:23.883Z,9.54
2019-05-10T03:13:01.483Z,9.53
2019-05-10T03:13:40.582Z,9.53
2019-05-10T03:14:20.713Z,9.53
2019-05-10T03:14:58.504Z,9.49
2019-05-10T03:15:38.425Z,9.53
2019-05-10T03:16:16.991Z,9.53
2019-05-10T03:16:53.442Z,9.54
2019-05-10T03:17:29.652Z,9.51
2019-05-10T03:18:05.558Z,9.52
2019-05-10T03:18:43.961Z,9.51
2019-05-10T03:19:20.790Z,9.51
2019-05-10T03:19:56.845Z,9.51
2019-05-10T03:20:35.722Z,9.55
2019-05-10T03:21:13.555Z,9.56
2019-05-10T03:21:54.832Z,9.56
2019-05-10T03:22:31.885Z,9.61
2019-05-10T03:23:10.901Z,9.65
2019-05-10T03:23:46.927Z,9.62
2019-05-10T03:24:27.585Z,9.62
2019-05-10T03:25:00.061Z,9.60
2019-05-10T03:25:35.630Z,9.60
2019-05-10T03:26:11.404Z,9.55
2019-05-10T03:26:51.308Z,9.56
2019-05-10T03:27:26.320Z,9.56
2019-05-10T03:28:01.816Z,9.58
2019-05-10T03:28:37.514Z,9.63
2019-05-10T03:29:13.623Z,9.59
2019-05-10T03:29:49.692Z,9.59
2019-05-10T03:30:25.162Z,9.66
2019-05-10T03:31:01.145Z,9.74
2019-05-10T03:31:37.214Z,9.62
2019-05-10T03:32:12.889Z,9.62
2019-05-10T03:32:48.379Z,9.57
2019-05-10T03:33:24.050Z,9.60
2019-05-10T03:33:59.748Z,9.71
2019-05-10T03:34:35.924Z,9.63
2019-05-10T03:35:11.703Z,9.63
2019-05-10T03:35:47.373Z,9.64
2019-05-10T03:36:23.482Z,9.72
2019-05-10T03:36:59.105Z,9.65
2019-05-10T03:37:34.844Z,9.59
2019-05-10T03:38:10.692Z,9.54
2019-05-10T03:38:46.917Z,9.55
2019-05-10T03:39:22.761Z,9.60
2019-05-10T03:39:58.609Z,9.57
2019-05-10T03:40:34.261Z,9.65
2019-05-10T03:41:09.956Z,9.56
2019-05-10T03:41:45.633Z,9.57
2019-05-10T03:42:21.142Z,9.57
2019-05-10T03:42:56.766Z,9.56
2019-05-10T03:43:32.394Z,9.55
2019-05-10T03:44:08.184Z,9.50
2019-05-10T03:44:43.664Z,9.50
2019-05-10T03:45:20.626Z,9.45
2019-05-10T03:45:56.660Z,9.43
2019-05-10T03:46:32.310Z,9.43
2019-05-10T03:47:08.378Z,9.43
2019-05-10T03:47:44.362Z,9.43
2019-05-10T03:48:20.038Z,9.45
2019-05-10T03:48:55.727Z,9.39
2019-05-10T03:49:31.193Z,9.39
2019-05-10T03:50:07.215Z,9.37
2019-05-10T03:50:43.041Z,9.45
2019-05-10T03:51:18.707Z,9.45
2019-05-10T03:51:54.161Z,9.49
2019-05-10T03:52:29.932Z,9.50
2019-05-10T03:53:05.925Z,9.50
2019-05-10T03:53:42.256Z,9.36
2019-05-10T03:54:18.060Z,9.36
2019-05-10T03:54:54.093Z,9.42
2019-05-10T03:55:29.768Z,9.43
2019-05-10T03:56:05.431Z,9.42
2019-05-10T03:56:41.131Z,9.43
2019-05-10T03:57:16.794Z,9.43
2019-05-10T03:57:52.440Z,9.43
2019-05-10T03:58:28.060Z,9.43
2019-05-10T03:59:04.101Z,9.43
2019-05-10T03:59:39.828Z,9.43
2019-05-10T04:00:16.064Z,9.33
2019-05-10T04:00:52.091Z,9.33
2019-05-10T04:01:27.970Z,9.32
2019-05-10T04:02:03.617Z,9.31
2019-05-10T04:02:39.297Z,9.31
2019-05-10T04:03:15.399Z,9.27
2019-05-10T04:03:51.120Z,9.28
2019-05-10T04:04:27.287Z,9.27
2019-05-10T04:05:02.949Z,9.31
2019-05-10T04:05:39.037Z,9.31
2019-05-10T04:06:14.525Z,9.21
2019-05-10T04:06:50.194Z,9.21
2019-05-10T04:07:26.331Z,9.27
2019-05-10T04:08:01.976Z,9.29
2019-05-10T04:08:38.213Z,9.30
2019-05-10T04:09:14.235Z,9.30
2019-05-10T04:09:50.202Z,9.29
2019-05-10T04:10:25.835Z,9.34
2019-05-10T04:11:01.292Z,9.34
2019-05-10T04:11:36.967Z,9.35
2019-05-10T04:12:12.593Z,9.35
2019-05-10T04:12:48.339Z,9.35
2019-05-10T04:13:23.786Z,9.35
2019-05-10T04:13:59.404Z,9.35
2019-05-10T04:14:35.237Z,9.27
2019-05-10T04:15:11.387Z,9.23
2019-05-10T04:15:47.306Z,9.21
2019-05-10T04:16:22.930Z,9.31
2019-05-10T04:16:58.976Z,9.31
2019-05-10T04:17:34.595Z,9.38
2019-05-10T04:18:10.107Z,9.38
2019-05-10T04:18:45.761Z,9.46
2019-05-10T04:19:21.444Z,9.46
2019-05-10T04:19:57.611Z,9.42
2019-05-10T04:20:33.039Z,9.42
2019-05-10T04:21:08.774Z,9.42
2019-05-10T04:21:44.693Z,9.37
2019-05-10T04:22:20.324Z,9.39
2019-05-10T04:22:56.066Z,9.34
2019-05-10T04:23:32.430Z,9.34
2019-05-10T04:24:08.181Z,9.33
2019-05-10T04:24:44.327Z,9.37
2019-05-10T04:25:19.765Z,9.39
2019-05-10T04:25:55.714Z,9.37
2019-05-10T04:26:31.696Z,9.37
2019-05-10T04:27:07.496Z,9.37
2019-05-10T04:27:43.020Z,9.39
2019-05-10T04:28:18.661Z,9.39
2019-05-10T04:28:54.286Z,9.45
2019-05-10T04:29:29.921Z,9.45
2019-05-10T04:30:05.529Z,9.47
2019-05-10T04:30:41.234Z,9.48
2019-05-10T04:31:16.876Z,9.48
2019-05-10T04:31:52.578Z,9.49
2019-05-10T04:32:27.994Z,9.38
2019-05-10T04:33:03.667Z,9.38
2019-05-10T04:33:40.092Z,9.40
2019-05-10T04:34:15.906Z,9.40
2019-05-10T04:34:51.446Z,9.48
2019-05-10T04:35:27.093Z,9.53
2019-05-10T04:36:02.981Z,9.47
2019-05-10T04:36:38.707Z,9.47
2019-05-10T04:37:14.182Z,9.43
2019-05-10T04:37:50.130Z,9.45
2019-05-10T04:38:25.754Z,9.49
2019-05-10T04:39:01.364Z,9.49
2019-05-10T04:39:37.295Z,9.46
2019-05-10T04:40:13.913Z,9.46
2019-05-10T04:40:49.594Z,9.50
2019-05-10T04:41:25.564Z,9.42
2019-05-10T04:42:01.029Z,9.42
2019-05-10T04:42:36.756Z,9.42
2019-05-10T04:43:12.414Z,9.49
2019-05-10T04:43:48.043Z,9.43
2019-05-10T04:44:23.464Z,9.49
2019-05-10T04:44:59.117Z,9.55
2019-05-10T04:45:34.852Z,9.58
2019-05-10T04:46:10.935Z,9.58
2019-05-10T04:46:46.394Z,9.59
2019-05-10T04:47:22.001Z,9.59
2019-05-10T04:47:57.904Z,9.53
2019-05-10T04:48:33.522Z,9.53
2019-05-10T04:49:09.052Z,9.57
2019-05-10T04:49:45.178Z,9.61
2019-05-10T04:50:20.785Z,9.61
2019-05-10T04:50:56.471Z,9.51
2019-05-10T04:51:31.923Z,9.55
2019-05-10T04:52:08.159Z,9.55
2019-05-10T04:52:43.869Z,9.54
2019-05-10T04:53:19.504Z,9.54
2019-05-10T04:53:55.240Z,9.59
2019-05-10T04:54:30.853Z,9.54
2019-05-10T04:55:07.847Z,9.54
2019-05-10T04:55:43.570Z,9.59
2019-05-10T04:56:19.331Z,9.67
2019-05-10T04:56:59.742Z,9.63
2019-05-10T04:57:49.157Z,9.63
2019-05-10T04:58:10.085Z,9.56
2019-05-10T04:58:46.434Z,9.67
2019-05-10T04:59:22.102Z,9.74
2019-05-10T04:59:58.101Z,9.78
2019-05-10T05:00:34.568Z,9.73
2019-05-10T05:01:10.070Z,9.82
2019-05-10T05:01:45.947Z,9.82
2019-05-10T05:02:22.426Z,9.74
2019-05-10T05:02:58.265Z,9.76
2019-05-10T05:03:34.143Z,9.73
2019-05-10T05:04:09.917Z,9.72
2019-05-10T05:04:45.944Z,9.83
2019-05-10T05:05:21.731Z,9.90
2019-05-10T05:05:57.110Z,9.84
2019-05-10T05:06:32.732Z,9.90
2019-05-10T05:07:08.514Z,9.90
2019-05-10T05:07:44.173Z,9.85
2019-05-10T05:08:19.609Z,9.78
2019-05-10T05:08:55.242Z,9.71
2019-05-10T05:09:30.893Z,9.74
2019-05-10T05:10:07.744Z,9.74
2019-05-10T05:10:43.219Z,9.90
2019-05-10T05:11:18.889Z,9.90
2019-05-10T05:11:54.495Z,9.86
2019-05-10T05:12:30.126Z,9.83
2019-05-10T05:13:05.598Z,9.86
2019-05-10T05:13:41.243Z,9.79
2019-05-10T05:14:16.905Z,9.79
2019-05-10T05:14:52.508Z,9.88
2019-05-10T05:15:28.338Z,9.89
2019-05-10T05:16:03.987Z,9.84
2019-05-10T05:16:40.484Z,9.84
2019-05-10T05:17:16.484Z,9.89
2019-05-10T05:17:52.344Z,9.91
2019-05-10T05:18:28.379Z,9.91
2019-05-10T05:19:04.006Z,9.89
2019-05-10T05:19:41.007Z,9.89
2019-05-10T05:20:16.656Z,9.84
2019-05-10T05:20:52.316Z,9.85
2019-05-10T05:21:27.930Z,9.99
2019-05-10T05:22:03.867Z,9.97
2019-05-10T05:22:39.842Z,10.04
2019-05-10T05:23:15.897Z,9.99
2019-05-10T05:23:51.992Z,9.95
2019-05-10T05:24:27.596Z,9.96
2019-05-10T05:25:03.836Z,10.10
2019-05-10T05:25:41.670Z,10.01
2019-05-10T05:26:17.505Z,9.97
2019-05-10T05:26:53.152Z,10.06
2019-05-10T05:27:29.506Z,10.02
2019-05-10T05:28:08.363Z,10.00
2019-05-10T05:28:43.673Z,10.00
2019-05-10T05:29:19.591Z,9.99
2019-05-10T05:29:55.117Z,9.99
2019-05-10T05:30:31.159Z,10.15
2019-05-10T05:31:07.259Z,10.17
2019-05-10T05:31:42.984Z,10.17
2019-05-10T05:32:18.419Z,10.10
2019-05-10T05:32:56.884Z,10.13
2019-05-10T05:33:31.354Z,10.13
2019-05-10T05:34:08.722Z,10.22
2019-05-10T05:34:44.314Z,10.25
2019-05-10T05:35:19.991Z,10.25
2019-05-10T05:35:55.654Z,10.34
2019-05-10T05:36:31.263Z,10.31
2019-05-10T05:37:07.515Z,10.25
2019-05-10T05:37:43.583Z,10.22
2019-05-10T05:38:19.624Z,10.26
2019-05-10T05:38:55.265Z,10.18
2019-05-10T05:39:30.701Z,10.18
2019-05-10T05:40:07.780Z,10.21
2019-05-10T05:40:43.528Z,10.21
2019-05-10T05:41:19.277Z,10.27
2019-05-10T05:41:56.662Z,10.27
2019-05-10T05:42:32.340Z,10.25
2019-05-10T05:43:09.728Z,10.36
2019-05-10T05:43:48.017Z,10.28
2019-05-10T05:44:26.205Z,10.30
2019-05-10T05:45:00.640Z,10.29
2019-05-10T05:45:37.156Z,10.29
2019-05-10T05:46:14.588Z,10.40
2019-05-10T05:46:51.192Z,10.41
2019-05-10T05:47:26.840Z,10.40
2019-05-10T05:48:02.483Z,10.43
2019-05-10T05:48:40.516Z,10.39
2019-05-10T05:49:16.182Z,10.46
2019-05-10T05:49:52.494Z,10.50
2019-05-10T05:50:28.190Z,10.45
2019-05-10T05:51:03.880Z,10.45
2019-05-10T05:51:40.071Z,10.52
2019-05-10T05:52:16.486Z,10.48
2019-05-10T05:52:52.107Z,10.48
2019-05-10T05:53:27.761Z,10.45
2019-05-10T05:54:04.145Z,10.45
2019-05-10T05:54:40.110Z,10.52
2019-05-10T05:55:15.779Z,10.47
2019-05-10T05:55:51.450Z,10.50
2019-05-10T05:56:26.899Z,10.50
2019-05-10T05:57:02.865Z,10.48
2019-05-10T05:57:38.928Z,10.48
2019-05-10T05:58:25.833Z,10.58
2019-05-10T05:58:52.589Z,10.61
2019-05-10T05:59:28.550Z,10.63
2019-05-10T06:00:06.764Z,10.59
2019-05-10T06:00:44.561Z,10.63
2019-05-10T06:01:26.381Z,10.59
2019-05-10T06:02:00.574Z,10.57
2019-05-10T06:02:44.250Z,10.52
2019-05-10T06:03:19.605Z,10.60
2019-05-10T06:03:50.694Z,10.60
2019-05-10T06:04:26.419Z,10.60
2019-05-10T06:05:02.542Z,10.67
2019-05-10T06:05:38.298Z,10.76
2019-05-10T06:06:21.232Z,10.79
2019-05-10T06:06:53.739Z,10.71
2019-05-10T06:07:31.089Z,10.68
2019-05-10T06:08:21.577Z,10.68
2019-05-10T06:08:44.207Z,10.85
2019-05-10T06:09:19.801Z,10.85
2019-05-10T06:09:55.439Z,10.86
2019-05-10T06:10:31.391Z,10.73
2019-05-10T06:11:09.050Z,10.70
2019-05-10T06:11:44.312Z,10.66
2019-05-10T06:12:19.990Z,10.63
2019-05-10T06:12:55.627Z,10.68
2019-05-10T06:13:32.522Z,10.72
2019-05-10T06:14:12.530Z,10.72
2019-05-10T06:14:49.804Z,10.72
2019-05-10T06:15:29.056Z,10.75
2019-05-10T06:16:06.547Z,10.78
2019-05-10T06:16:38.383Z,10.84
2019-05-10T06:17:14.884Z,10.80
2019-05-10T06:17:56.632Z,10.75
2019-05-10T06:18:28.245Z,10.79
2019-05-10T06:19:03.939Z,10.79
2019-05-10T06:19:39.959Z,10.86
2019-05-10T06:20:15.637Z,10.79
2019-05-10T06:20:51.431Z,10.76
2019-05-10T06:21:27.587Z,10.80
2019-05-10T06:22:04.765Z,10.77
2019-05-10T06:22:45.594Z,10.77
2019-05-10T06:23:18.487Z,10.83
2019-05-10T06:23:54.491Z,10.83
2019-05-10T06:24:30.219Z,10.82
2019-05-10T06:25:06.430Z,10.89
2019-05-10T06:25:43.061Z,10.94
2019-05-10T06:26:26.510Z,10.85
2019-05-10T06:26:58.284Z,10.85
2019-05-10T06:27:35.313Z,10.88
2019-05-10T06:28:25.600Z,10.97
2019-05-10T06:28:59.818Z,10.87
2019-05-10T06:29:26.306Z,10.95
2019-05-10T06:30:01.935Z,11.02
2019-05-10T06:30:37.492Z,10.96
2019-05-10T06:31:13.580Z,10.94
2019-05-10T06:31:49.652Z,10.96
2019-05-10T06:32:25.370Z,11.08
2019-05-10T06:33:12.028Z,11.10
2019-05-10T06:33:39.560Z,11.07
2019-05-10T06:34:16.232Z,11.12
2019-05-10T06:34:51.856Z,11.12
2019-05-10T06:35:27.311Z,11.05
2019-05-10T06:36:03.310Z,11.04
2019-05-10T06:36:39.442Z,11.12
2019-05-10T06:37:15.115Z,11.05
2019-05-10T06:37:50.580Z,11.06
2019-05-10T06:38:26.874Z,11.04
2019-05-10T06:39:02.588Z,11.08
2019-05-10T06:39:38.507Z,11.14
2019-05-10T06:40:14.223Z,11.05
2019-05-10T06:40:50.275Z,11.10
2019-05-10T06:41:25.923Z,11.11
2019-05-10T06:42:01.581Z,11.15
2019-05-10T06:42:38.165Z,11.11
2019-05-10T06:43:15.623Z,11.16
2019-05-10T06:43:53.126Z,11.22
2019-05-10T06:44:31.262Z,11.28
2019-05-10T06:45:14.354Z,11.31
2019-05-10T06:45:46.832Z,11.38
2019-05-10T06:46:23.785Z,11.39
2019-05-10T06:47:02.066Z,11.30
2019-05-10T06:47:41.903Z,11.29
2019-05-10T06:48:25.832Z,11.23
2019-05-10T06:48:52.740Z,11.27
2019-05-10T06:49:28.431Z,11.19
2019-05-10T06:50:04.733Z,11.28
2019-05-10T06:50:41.065Z,11.20
2019-05-10T06:51:16.830Z,11.24
2019-05-10T06:51:52.736Z,11.35
2019-05-10T06:52:29.842Z,11.28
2019-05-10T06:53:10.562Z,11.38
2019-05-10T06:53:52.286Z,11.36
2019-05-10T06:54:21.214Z,11.48
2019-05-10T06:54:58.665Z,11.39
2019-05-10T06:55:34.029Z,11.44
2019-05-10T06:56:10.111Z,11.45
2019-05-10T06:56:45.822Z,11.49
2019-05-10T06:57:21.300Z,11.59
2019-05-10T06:58:00.569Z,11.59
2019-05-10T06:58:36.486Z,11.73
2019-05-10T06:59:13.801Z,11.75
2019-05-10T06:59:49.541Z,11.67
2019-05-10T07:00:25.155Z,11.68
2019-05-10T07:01:00.814Z,11.81
2019-05-10T07:01:38.335Z,11.87
2019-05-10T07:02:13.733Z,11.84
2019-05-10T07:02:49.419Z,11.72
2019-05-10T07:03:25.469Z,11.69
2019-05-10T07:04:01.140Z,11.67
2019-05-10T07:04:40.957Z,11.78
2019-05-10T07:05:48.708Z,11.82
2019-05-10T07:06:24.315Z,11.66
2019-05-10T07:07:00.102Z,11.75
2019-05-10T07:07:43.709Z,11.75
2019-05-10T07:08:19.979Z,11.70
2019-05-10T07:08:57.362Z,11.70
2019-05-10T07:09:28.945Z,11.75
2019-05-10T07:10:13.211Z,11.70
2019-05-10T07:10:42.536Z,11.64
2019-05-10T07:11:18.243Z,11.64
2019-05-10T07:11:53.707Z,11.65
2019-05-10T07:12:30.379Z,11.65
2019-05-10T07:13:06.663Z,11.68
2019-05-10T07:13:47.146Z,11.82
2019-05-10T07:14:25.551Z,11.91
2019-05-10T07:15:02.570Z,11.97
2019-05-10T07:15:35.926Z,12.06
2019-05-10T07:16:14.526Z,11.88
2019-05-10T07:16:50.689Z,12.00
2019-05-10T07:17:26.337Z,11.97
2019-05-10T07:18:02.337Z,11.99
2019-05-10T07:18:38.049Z,11.89
2019-05-10T07:19:13.648Z,11.89
2019-05-10T07:19:53.789Z,11.84
2019-05-10T07:20:29.358Z,11.78
2019-05-10T07:21:06.673Z,11.81
2019-05-10T07:21:44.917Z,11.78
2019-05-10T07:22:21.639Z,11.80
2019-05-10T07:23:00.050Z,12.03
2019-05-10T07:23:38.947Z,12.03
2019-05-10T07:24:11.454Z,12.00
2019-05-10T07:24:47.051Z,11.97
2019-05-10T07:25:23.049Z,11.97
2019-05-10T07:25:58.667Z,11.89
2019-05-10T07:26:34.197Z,11.87
2019-05-10T07:27:10.128Z,12.02
2019-05-10T07:27:49.999Z,12.06
2019-05-10T07:28:24.001Z,11.95
2019-05-10T07:28:59.952Z,11.92
2019-05-10T07:29:42.142Z,11.98
2019-05-10T07:30:13.024Z,11.98
2019-05-10T07:30:49.134Z,11.98
2019-05-10T07:31:24.893Z,12.03
2019-05-10T07:32:00.534Z,12.05
2019-05-10T07:32:36.793Z,12.07
2019-05-10T07:33:12.506Z,12.19
2019-05-10T07:33:48.228Z,12.27
2019-05-10T07:34:23.899Z,12.13
2019-05-10T07:35:00.993Z,12.17
2019-05-10T07:35:38.825Z,12.18
2019-05-10T07:36:15.568Z,12.18
2019-05-10T07:36:52.009Z,12.18
2019-05-10T07:37:27.666Z,12.19
2019-05-10T07:38:04.056Z,12.19
2019-05-10T07:38:39.517Z,12.22
2019-05-10T07:39:15.222Z,12.28
2019-05-10T07:39:50.862Z,12.13
2019-05-10T07:40:26.491Z,12.10
2019-05-10T07:41:02.360Z,12.07
2019-05-10T07:41:38.201Z,12.08
2019-05-10T07:42:13.972Z,12.09
2019-05-10T07:42:50.005Z,12.02
2019-05-10T07:43:28.717Z,12.00
2019-05-10T07:44:07.707Z,12.26
2019-05-10T07:44:41.474Z,12.22
2019-05-10T07:45:18.736Z,12.26
2019-05-10T07:45:58.862Z,12.25
2019-05-10T07:46:32.817Z,12.46
2019-05-10T07:47:08.644Z,12.48
2019-05-10T07:47:44.733Z,12.56
2019-05-10T07:48:23.192Z,12.58
2019-05-10T07:48:58.333Z,12.68
2019-05-10T07:49:34.314Z,12.64
2019-05-10T07:50:11.675Z,12.73
2019-05-10T07:50:49.375Z,12.54
2019-05-10T07:51:28.815Z,12.45
2019-05-10T07:52:04.481Z,12.57
2019-05-10T07:52:43.330Z,12.43
2019-05-10T07:53:22.802Z,12.44
2019-05-10T07:53:57.078Z,12.51
2019-05-10T07:54:37.577Z,12.62
2019-05-10T07:55:11.686Z,12.71
2019-05-10T07:55:47.507Z,12.73
2019-05-10T07:56:23.947Z,12.73
2019-05-10T07:56:59.595Z,12.80
2019-05-10T07:57:35.350Z,12.87